Time;durP1;ratioP1;P1;durP2;ratioP2;P2;SDS_P1;SDS_P2;PMS_P1;PMS_P2;Temp;Humidity;BMP_temperature;BMP_pressure;BME280_temperature;BME280_humidity;BME280_pressure;Samples;Min_cycle;Max_cycle;Signal;HPM_P1;HPM_P2
2023/08/29 00:00:32;;;;;;;5.50;4.83;;;15.10;92.70;;;;;;6132858;23;20221;-88
2023/08/29 00:03:03;;;;;;;5.73;4.37;;;15.10;92.60;;;;;;6132863;23;20158;-85
2023/08/29 00:05:29;;;;;;;4.53;4.13;;;15.10;93.00;;;;;;6135180;23;20563;-93
2023/08/29 00:07:54;;;;;;;8.20;5.60;;;15.10;93.90;;;;;;6111376;23;20161;-91
2023/08/29 00:10:21;;;;;;;6.03;5.50;;;15.10;93.50;;;;;;6111487;23;20165;-92
2023/08/29 00:12:48;;;;;;;6.87;6.17;;;15.10;93.30;;;;;;6135438;23;20184;-92
2023/08/29 00:15:14;;;;;;;8.63;6.63;;;15.30;94.70;;;;;;6135776;23;20212;-92
2023/08/29 00:17:40;;;;;;;6.67;5.97;;;15.30;95.30;;;;;;6136143;23;20158;-90
2023/08/29 00:20:06;;;;;;;6.80;6.03;;;15.00;96.00;;;;;;6135954;23;20158;-93
2023/08/29 00:22:32;;;;;;;6.47;5.23;;;15.00;96.60;;;;;;6135172;23;20630;-90
2023/08/29 00:24:59;;;;;;;5.83;5.33;;;15.00;96.80;;;;;;6134284;23;20186;-85
2023/08/29 00:27:24;;;;;;;6.40;5.80;;;15.20;96.20;;;;;;6133072;23;20177;-86
2023/08/29 00:29:50;;;;;;;6.53;5.93;;;15.10;96.30;;;;;;6158513;23;20265;-85
2023/08/29 00:32:17;;;;;;;6.77;6.17;;;15.00;96.10;;;;;;6135044;23;20201;-85
2023/08/29 00:34:43;;;;;;;6.10;5.50;;;15.10;95.30;;;;;;6133055;23;20178;-83
2023/08/29 00:37:08;;;;;;;6.60;6.00;;;15.00;95.70;;;;;;6133868;23;20166;-83
2023/08/29 00:39:34;;;;;;;7.13;6.40;;;15.10;96.00;;;;;;6134389;23;20164;-83
2023/08/29 00:42:00;;;;;;;8.33;6.40;;;15.30;97.90;;;;;;6108084;23;20196;-85
2023/08/29 00:44:26;;;;;;;7.30;6.60;;;15.00;98.90;;;;;;6132258;23;20208;-85
2023/08/29 00:46:53;;;;;;;6.67;6.07;;;14.90;99.90;;;;;;6132627;23;20166;-86
2023/08/29 00:49:22;;;;;;;5.87;5.20;;;15.00;99.90;;;;;;6133013;23;20154;-86
2023/08/29 00:51:48;;;;;;;7.17;6.43;;;14.90;99.90;;;;;;6132137;23;20182;-87
2023/08/29 00:54:15;;;;;;;6.03;5.23;;;14.80;99.90;;;;;;6132017;23;20162;-85
2023/08/29 00:56:42;;;;;;;5.87;5.37;;;14.80;99.90;;;;;;6132339;23;20165;-84
2023/08/29 00:59:08;;;;;;;6.93;6.33;;;14.80;99.90;;;;;;6132230;23;20220;-91
2023/08/29 01:01:35;;;;;;;5.67;5.27;;;14.70;99.90;;;;;;6133525;23;20228;-91
2023/08/29 01:04:02;;;;;;;6.20;5.60;;;14.80;98.60;;;;;;6149216;23;20170;-86
2023/08/29 01:06:30;;;;;;;5.97;5.43;;;14.60;97.70;;;;;;6131582;23;20162;-84
2023/08/29 01:08:57;;;;;;;7.23;6.13;;;14.60;97.50;;;;;;6131996;23;20216;-84
2023/08/29 01:12:07;;;;;;;5.93;5.33;;;14.40;97.70;;;;;;6131213;23;20182;-84
2023/08/29 01:14:40;;;;;;;9.27;6.23;;;14.50;97.90;;;;;;6091332;23;20177;-85
2023/08/29 01:17:18;;;;;;;7.03;5.47;;;14.50;97.80;;;;;;6131936;23;20239;-88
2023/08/29 01:19:50;;;;;;;5.97;5.43;;;14.50;98.00;;;;;;6132746;23;20162;-87
2023/08/29 01:22:44;;;;;;;6.07;5.57;;;14.40;97.50;;;;;;6133315;23;20156;-85
2023/08/29 01:25:17;;;;;;;6.40;4.97;;;14.40;97.20;;;;;;6135472;23;20197;-84
2023/08/29 01:27:44;;;;;;;5.93;5.30;;;14.40;98.00;;;;;;6143132;23;20181;-88
2023/08/29 01:30:10;;;;;;;6.23;5.17;;;14.20;98.70;;;;;;6143217;23;20169;-87
2023/08/29 01:32:37;;;;;;;6.03;5.50;;;14.30;99.10;;;;;;6143919;23;20216;-87
2023/08/29 01:35:04;;;;;;;6.60;5.90;;;14.20;99.30;;;;;;6144582;23;20222;-83
2023/08/29 01:37:30;;;;;;;5.83;5.33;;;14.20;99.50;;;;;;6144315;23;20662;-90
2023/08/29 01:39:56;;;;;;;5.60;5.13;;;14.20;99.90;;;;;;6144930;23;20164;-89
2023/08/29 01:42:21;;;;;;;6.53;5.83;;;14.20;99.90;;;;;;6144902;23;20170;-90
2023/08/29 01:44:47;;;;;;;6.83;5.60;;;14.20;99.90;;;;;;6145776;23;20188;-89
2023/08/29 01:47:13;;;;;;;5.73;5.23;;;14.30;99.90;;;;;;6143260;23;20201;-92
2023/08/29 01:49:39;;;;;;;5.27;4.77;;;14.00;99.90;;;;;;6144680;23;20165;-90
2023/08/29 01:52:05;;;;;;;5.73;5.13;;;14.10;99.90;;;;;;6145105;23;20177;-88
2023/08/29 01:54:31;;;;;;;5.10;4.70;;;14.00;99.90;;;;;;6144612;23;20181;-90
2023/08/29 01:56:58;;;;;;;6.20;4.87;;;14.10;99.90;;;;;;6151880;23;20164;-84
2023/08/29 01:59:25;;;;;;;7.13;5.50;;;14.20;99.90;;;;;;6151223;23;20162;-85
2023/08/29 02:01:53;;;;;;;7.10;6.50;;;14.00;99.90;;;;;;6184162;23;20138;-87
2023/08/29 02:04:18;;;;;;;7.40;6.70;;;13.90;99.90;;;;;;6159084;23;20220;-91
2023/08/29 02:06:44;;;;;;;7.63;6.93;;;13.90;99.90;;;;;;6184384;23;20149;-86
2023/08/29 02:09:10;;;;;;;8.37;7.30;;;14.00;99.90;;;;;;6157090;23;20160;-92
2023/08/29 02:11:36;;;;;;;8.07;7.27;;;13.90;99.90;;;;;;6156734;23;20165;-92
2023/08/29 02:14:02;;;;;;;8.30;7.53;;;14.10;99.90;;;;;;6149505;23;20204;-93
2023/08/29 02:16:27;;;;;;;8.70;7.07;;;14.00;99.90;;;;;;6110501;23;20196;-92
2023/08/29 02:18:53;;;;;;;8.57;7.67;;;13.90;99.90;;;;;;6134852;23;20166;-93
2023/08/29 02:21:19;;;;;;;8.00;7.20;;;13.90;99.90;;;;;;6134265;23;20171;-92
2023/08/29 02:23:46;;;;;;;8.23;7.43;;;13.90;99.90;;;;;;6135213;23;20466;-92
2023/08/29 02:26:11;;;;;;;10.67;7.50;;;13.60;99.90;;;;;;6133177;23;20245;-91
2023/08/29 02:28:38;;;;;;;10.83;8.30;;;13.80;99.90;;;;;;6106461;23;20162;-92
2023/08/29 02:31:08;;;;;;;8.20;7.50;;;13.90;99.90;;;;;;6111392;23;20185;-90
2023/08/29 02:33:35;;;;;;;8.33;6.77;;;13.90;99.90;;;;;;6124172;23;20157;-91
2023/08/29 02:36:04;;;;;;;9.17;8.33;;;13.90;99.90;;;;;;6122085;23;20285;-90
2023/08/29 02:38:30;;;;;;;7.57;6.87;;;14.20;99.90;;;;;;6110268;23;20162;-91
2023/08/29 02:40:56;;;;;;;7.50;6.83;;;14.30;99.90;;;;;;6106880;23;20163;-92
2023/08/29 02:43:21;;;;;;;7.87;6.77;;;13.80;99.90;;;;;;6106548;23;20199;-92
2023/08/29 02:45:49;;;;;;;7.87;7.07;;;13.80;99.90;;;;;;6111663;23;20166;-91
2023/08/29 02:48:15;;;;;;;8.33;7.50;;;13.90;99.90;;;;;;6118028;23;20163;-90
2023/08/29 02:50:42;;;;;;;8.60;7.80;;;14.10;99.90;;;;;;6087306;23;20166;-91
2023/08/29 02:53:07;;;;;;;9.57;8.13;;;14.10;99.90;;;;;;6107663;23;20599;-92
2023/08/29 02:55:33;;;;;;;8.80;7.23;;;13.70;99.90;;;;;;6107468;23;20185;-91
2023/08/29 02:57:59;;;;;;;8.40;7.60;;;13.80;99.90;;;;;;6112155;23;20247;-92
2023/08/29 03:00:24;;;;;;;8.30;7.00;;;13.80;99.90;;;;;;6122160;23;20186;-91
2023/08/29 03:02:50;;;;;;;8.37;7.57;;;13.80;99.90;;;;;;6107953;23;20491;-91
2023/08/29 03:05:17;;;;;;;9.03;7.57;;;13.80;99.90;;;;;;6106279;23;20184;-92
2023/08/29 03:07:43;;;;;;;7.83;7.03;;;13.80;99.90;;;;;;6106247;23;20226;-92
2023/08/29 03:10:09;;;;;;;8.40;7.60;;;13.80;99.90;;;;;;6106442;23;20253;-92
2023/08/29 03:12:35;;;;;;;8.30;7.50;;;13.70;99.90;;;;;;6105894;23;20631;-91
2023/08/29 03:15:00;;;;;;;8.83;8.03;;;13.70;99.90;;;;;;6107652;23;20181;-90
2023/08/29 03:17:26;;;;;;;9.60;8.27;;;13.70;99.90;;;;;;6107660;23;20175;-92
2023/08/29 03:19:52;;;;;;;8.23;7.43;;;14.40;99.90;;;;;;6108197;23;20163;-92
2023/08/29 03:22:17;;;;;;;10.60;7.37;;;13.50;99.90;;;;;;6106440;23;20241;-92
2023/08/29 03:24:46;;;;;;;12.60;8.27;;;13.60;99.90;;;;;;6106487;23;20186;-90
2023/08/29 03:27:13;;;;;;;8.43;7.63;;;13.60;99.90;;;;;;6116193;23;20217;-90
2023/08/29 03:29:40;;;;;;;9.57;8.57;;;13.90;99.90;;;;;;6131972;23;20162;-91
2023/08/29 03:32:05;;;;;;;9.40;8.50;;;14.10;99.90;;;;;;6131998;23;20261;-90
2023/08/29 03:34:31;;;;;;;10.17;8.63;;;13.90;99.90;;;;;;6131520;23;20186;-90
2023/08/29 03:36:57;;;;;;;9.30;8.30;;;13.40;99.90;;;;;;6131127;23;20182;-91
2023/08/29 03:39:22;;;;;;;8.73;7.83;;;14.10;99.90;;;;;;6131850;23;20182;-92
2023/08/29 03:41:50;;;;;;;12.40;10.07;;;13.60;99.90;;;;;;6132445;23;20334;-91
2023/08/29 03:44:15;;;;;;;11.97;10.80;;;13.80;99.90;;;;;;6130987;23;20612;-89
2023/08/29 03:46:41;;;;;;;12.47;11.17;;;13.60;99.90;;;;;;6107059;23;20172;-91
2023/08/29 03:49:07;;;;;;;12.20;9.90;;;14.30;99.90;;;;;;6131229;23;20196;-91
2023/08/29 03:51:32;;;;;;;10.93;9.87;;;14.70;99.90;;;;;;6131352;23;20620;-91
2023/08/29 03:53:58;;;;;;;12.83;10.80;;;13.60;99.90;;;;;;6132107;23;20163;-91
2023/08/29 03:56:23;;;;;;;12.13;10.77;;;13.60;99.90;;;;;;6131581;23;20253;-91
2023/08/29 03:58:53;;;;;;;13.27;10.90;;;14.40;99.90;;;;;;6131459;23;20158;-91
2023/08/29 04:01:21;;;;;;;12.70;10.67;;;13.60;99.90;;;;;;6130970;23;20172;-92
2023/08/29 04:03:49;;;;;;;11.60;10.40;;;14.10;99.90;;;;;;6131708;23;20169;-89
2023/08/29 04:06:18;;;;;;;11.83;10.70;;;14.70;99.90;;;;;;6131662;23;20182;-92
2023/08/29 04:08:44;;;;;;;12.47;11.13;;;13.40;99.90;;;;;;6131333;23;20608;-91
2023/08/29 04:11:09;;;;;;;12.53;11.23;;;13.50;99.90;;;;;;6130488;23;20186;-92
2023/08/29 04:13:35;;;;;;;12.83;11.53;;;15.10;99.90;;;;;;6130721;23;20158;-92
2023/08/29 04:16:02;;;;;;;14.10;12.70;;;13.50;99.90;;;;;;6129626;23;20178;-92
2023/08/29 04:18:29;;;;;;;14.97;13.07;;;14.50;99.90;;;;;;6131500;23;20160;-90
2023/08/29 04:20:54;;;;;;;15.10;11.90;;;14.10;99.90;;;;;;6132340;23;20162;-91
2023/08/29 04:23:20;;;;;;;13.50;12.10;;;13.90;99.90;;;;;;6105602;23;20159;-92
2023/08/29 04:25:46;;;;;;;15.60;12.07;;;14.90;99.90;;;;;;6129643;23;20206;-92
2023/08/29 04:28:14;;;;;;;14.90;11.67;;;13.70;99.90;;;;;;6130038;23;20171;-93
2023/08/29 04:30:40;;;;;;;14.67;12.90;;;13.70;99.90;;;;;;6142879;23;20167;-91
2023/08/29 04:33:06;;;;;;;16.97;13.57;;;13.30;99.90;;;;;;6132949;23;20169;-92
2023/08/29 04:35:34;;;;;;;13.43;12.03;;;13.50;99.90;;;;;;6131523;23;20180;-90
2023/08/29 04:37:59;;;;;;;13.43;11.70;;;13.40;99.90;;;;;;6129838;23;20217;-91
2023/08/29 04:40:25;;;;;;;12.67;11.37;;;13.50;99.90;;;;;;6129690;23;20241;-91
2023/08/29 04:42:51;;;;;;;13.17;11.53;;;14.70;99.90;;;;;;6130873;23;20163;-91
2023/08/29 04:45:17;;;;;;;14.33;12.43;;;13.10;99.90;;;;;;6129621;23;20184;-92
2023/08/29 04:47:43;;;;;;;14.57;11.43;;;13.40;99.90;;;;;;6129692;23;20164;-92
2023/08/29 04:50:10;;;;;;;13.83;11.67;;;13.40;99.90;;;;;;6129595;23;20498;-93
2023/08/29 04:52:36;;;;;;;12.47;11.17;;;13.40;99.90;;;;;;6129612;23;20260;-91
2023/08/29 04:55:05;;;;;;;12.20;10.97;;;13.40;99.90;;;;;;6130382;23;20198;-92
2023/08/29 04:57:32;;;;;;;12.60;11.30;;;13.40;99.90;;;;;;6130486;23;20506;-92
2023/08/29 05:00:00;;;;;;;19.93;14.60;;;13.40;99.90;;;;;;6130259;23;20239;-91
2023/08/29 05:02:26;;;;;;;16.47;13.87;;;14.40;99.90;;;;;;6130995;23;20162;-91
2023/08/29 05:04:52;;;;;;;16.10;13.67;;;13.50;99.90;;;;;;6130068;23;20186;-91
2023/08/29 05:07:18;;;;;;;17.00;13.53;;;14.30;99.90;;;;;;6130956;23;20214;-91
2023/08/29 05:09:44;;;;;;;19.33;15.37;;;13.80;99.90;;;;;;6131487;23;20223;-92
2023/08/29 05:12:10;;;;;;;17.77;16.00;;;13.40;99.90;;;;;;6107569;23;20237;-91
2023/08/29 05:14:38;;;;;;;20.03;15.87;;;14.00;99.90;;;;;;6134839;23;20174;-91
2023/08/29 05:17:04;;;;;;;19.07;16.37;;;14.00;99.90;;;;;;6133821;23;20489;-91
2023/08/29 05:19:30;;;;;;;19.83;16.67;;;13.50;99.90;;;;;;6130653;23;20158;-91
2023/08/29 05:21:56;;;;;;;18.67;15.77;;;13.60;99.90;;;;;;6133957;23;20210;-92
2023/08/29 05:24:22;;;;;;;19.10;16.80;;;13.60;99.90;;;;;;6131873;23;20182;-90
2023/08/29 05:26:48;;;;;;;18.67;15.80;;;13.70;99.90;;;;;;6133529;23;20169;-91
2023/08/29 05:29:14;;;;;;;18.97;16.30;;;13.60;99.90;;;;;;6134510;23;20160;-92
2023/08/29 05:31:39;;;;;;;22.57;16.60;;;14.10;99.90;;;;;;6082639;23;20189;-92
2023/08/29 05:34:06;;;;;;;26.23;16.77;;;13.60;99.90;;;;;;6107046;23;20189;-90
2023/08/29 05:36:31;;;;;;;23.70;16.63;;;13.10;99.90;;;;;;6133517;23;20159;-91
2023/08/29 05:38:58;;;;;;;18.40;16.40;;;13.60;99.90;;;;;;6133492;23;20163;-93
2023/08/29 05:41:24;;;;;;;23.17;17.50;;;13.60;99.90;;;;;;6132451;23;20166;-91
2023/08/29 05:43:50;;;;;;;22.70;17.70;;;13.70;99.90;;;;;;6082068;23;20480;-93
2023/08/29 05:46:15;;;;;;;23.43;18.10;;;13.60;99.90;;;;;;6133618;23;20187;-90
2023/08/29 05:48:41;;;;;;;20.40;17.67;;;13.90;99.90;;;;;;6136856;23;20163;-91
2023/08/29 05:51:07;;;;;;;22.60;18.03;;;13.80;99.90;;;;;;6105054;23;20193;-91
2023/08/29 05:53:32;;;;;;;21.23;17.90;;;13.80;99.90;;;;;;6104806;23;20155;-91
2023/08/29 05:55:58;;;;;;;28.70;20.60;;;15.00;99.90;;;;;;6105373;23;20180;-91
2023/08/29 05:58:25;;;;;;;27.33;20.27;;;14.40;99.90;;;;;;6104603;23;20177;-93
2023/08/29 06:00:51;;;;;;;27.80;19.47;;;14.70;99.90;;;;;;6105710;23;20151;-91
2023/08/29 06:03:16;;;;;;;29.37;21.07;;;13.90;99.90;;;;;;6105655;23;20171;-91
2023/08/29 06:05:48;;;;;;;27.23;20.23;;;14.70;99.90;;;;;;6105467;23;20178;-91
2023/08/29 06:08:14;;;;;;;27.10;20.10;;;14.60;99.90;;;;;;6104856;23;20229;-92
2023/08/29 06:10:40;;;;;;;27.63;21.07;;;14.10;99.90;;;;;;6105085;23;20476;-91
2023/08/29 06:13:05;;;;;;;25.30;18.93;;;14.00;99.90;;;;;;6104816;23;20209;-91
2023/08/29 06:15:31;;;;;;;27.70;21.43;;;13.70;99.90;;;;;;6146114;23;20274;-91
2023/08/29 06:17:57;;;;;;;27.50;21.10;;;14.10;99.90;;;;;;6107671;23;20475;-92
2023/08/29 06:20:22;;;;;;;30.80;23.50;;;14.40;99.90;;;;;;6106679;23;20155;-92
2023/08/29 06:22:48;;;;;;;28.77;23.47;;;14.10;99.90;;;;;;6107007;23;20249;-90
2023/08/29 06:25:15;;;;;;;28.10;22.10;;;14.40;99.90;;;;;;6132889;23;20188;-91
2023/08/29 06:27:41;;;;;;;26.83;22.10;;;14.20;99.90;;;;;;6132182;23;20179;-91
2023/08/29 06:30:07;;;;;;;29.17;23.00;;;14.40;99.90;;;;;;6106278;23;20166;-91
2023/08/29 06:32:34;;;;;;;33.67;22.73;;;14.30;99.90;;;;;;6107375;23;20186;-91
2023/08/29 06:35:00;;;;;;;28.43;21.70;;;14.30;99.90;;;;;;6106676;23;20187;-91
2023/08/29 06:37:26;;;;;;;27.53;21.67;;;14.60;99.90;;;;;;6107143;23;20166;-92
2023/08/29 06:39:51;;;;;;;26.63;20.93;;;14.40;99.90;;;;;;6106547;23;20169;-92
2023/08/29 06:42:17;;;;;;;27.40;21.43;;;14.90;99.90;;;;;;6106885;23;20479;-91
2023/08/29 06:44:42;;;;;;;27.63;21.80;;;14.60;99.90;;;;;;6106266;23;20181;-92
2023/08/29 06:47:08;;;;;;;25.73;20.87;;;14.40;99.90;;;;;;6106120;23;20166;-92
2023/08/29 06:49:34;;;;;;;26.13;20.30;;;14.50;99.90;;;;;;6106913;23;20165;-89
2023/08/29 06:51:59;;;;;;;26.23;20.10;;;16.00;99.90;;;;;;6105987;23;20220;-91
2023/08/29 06:54:28;;;;;;;26.13;20.43;;;14.00;99.90;;;;;;6106632;23;20217;-89
2023/08/29 06:56:53;;;;;;;28.07;21.03;;;14.50;99.90;;;;;;6106764;23;20240;-92
2023/08/29 06:59:19;;;;;;;25.77;21.77;;;14.60;99.90;;;;;;6107565;23;20162;-90
2023/08/29 07:01:44;;;;;;;27.97;22.53;;;14.20;99.90;;;;;;6107164;23;20173;-92
2023/08/29 07:04:11;;;;;;;34.57;25.03;;;14.80;99.90;;;;;;6106740;23;20231;-90
2023/08/29 07:06:37;;;;;;;37.80;26.73;;;14.70;99.90;;;;;;6106786;23;20162;-91
2023/08/29 07:09:03;;;;;;;32.87;24.60;;;14.70;99.90;;;;;;6107853;23;20167;-93
2023/08/29 07:11:29;;;;;;;26.17;21.37;;;15.40;99.90;;;;;;6107297;23;20213;-92
2023/08/29 07:13:54;;;;;;;25.93;19.50;;;14.70;99.90;;;;;;6132687;23;20155;-92
2023/08/29 07:16:21;;;;;;;26.70;20.70;;;15.40;99.90;;;;;;6132787;23;20477;-90
2023/08/29 07:18:47;;;;;;;22.43;18.40;;;14.70;99.90;;;;;;6132841;23;20630;-93
2023/08/29 07:21:13;;;;;;;21.83;18.97;;;15.60;99.90;;;;;;6107619;23;20158;-90
2023/08/29 07:23:39;;;;;;;26.23;20.00;;;14.80;99.90;;;;;;6106693;23;20194;-91
2023/08/29 07:26:04;;;;;;;33.77;21.83;;;14.80;99.90;;;;;;6107891;23;20188;-90
2023/08/29 07:28:30;;;;;;;29.27;22.60;;;15.40;99.90;;;;;;6106424;23;20221;-91
2023/08/29 07:30:57;;;;;;;31.67;23.67;;;15.00;99.90;;;;;;6106467;23;20639;-91
2023/08/29 07:33:23;;;;;;;27.30;22.23;;;14.90;99.90;;;;;;6082724;23;20234;-91
2023/08/29 07:35:49;;;;;;;26.93;21.80;;;14.90;99.90;;;;;;6132840;23;20181;-91
2023/08/29 07:38:15;;;;;;;27.27;21.37;;;15.00;99.90;;;;;;6106230;23;20209;-91
2023/08/29 07:40:44;;;;;;;26.50;21.10;;;15.00;99.90;;;;;;6106996;23;20604;-91
2023/08/29 07:43:11;;;;;;;24.53;20.20;;;14.90;99.90;;;;;;6106370;23;20245;-92
2023/08/29 07:45:38;;;;;;;27.60;21.73;;;15.10;99.90;;;;;;6106427;23;20188;-90
2023/08/29 07:48:04;;;;;;;26.40;20.77;;;15.10;99.90;;;;;;6105345;23;20235;-93
2023/08/29 07:50:30;;;;;;;28.37;20.73;;;15.20;99.90;;;;;;6106451;23;20182;-92
2023/08/29 07:52:56;;;;;;;27.83;19.77;;;16.50;99.90;;;;;;6106084;23;20189;-91
2023/08/29 07:55:22;;;;;;;25.63;20.57;;;15.30;99.90;;;;;;6131346;23;20178;-90
2023/08/29 07:57:48;;;;;;;24.73;18.27;;;15.30;99.90;;;;;;6121238;23;20202;-91
2023/08/29 08:00:15;;;;;;;24.07;19.03;;;15.50;99.90;;;;;;6132891;23;20190;-92
2023/08/29 08:02:41;;;;;;;23.60;18.97;;;15.40;99.90;;;;;;6107933;23;20158;-91
2023/08/29 08:05:15;;;;;;;22.33;17.87;;;15.40;99.90;;;;;;6132063;23;20520;-91
2023/08/29 08:07:43;;;;;;;22.00;17.40;;;15.60;99.90;;;;;;6106635;23;20158;-90
2023/08/29 08:10:10;;;;;;;27.13;17.93;;;15.40;99.90;;;;;;6106533;23;20162;-90
2023/08/29 08:12:37;;;;;;;22.47;17.60;;;15.50;99.90;;;;;;6105846;23;20186;-91
2023/08/29 08:15:04;;;;;;;22.90;17.90;;;15.70;99.90;;;;;;6105867;23;20185;-91
2023/08/29 08:17:30;;;;;;;25.43;17.23;;;15.50;99.90;;;;;;6131979;23;20159;-90
2023/08/29 08:19:56;;;;;;;21.73;16.77;;;15.60;99.90;;;;;;6105870;23;20158;-91
2023/08/29 08:22:22;;;;;;;22.50;16.57;;;15.60;99.90;;;;;;6131767;23;20599;-92
2023/08/29 08:24:48;;;;;;;18.33;15.63;;;15.70;99.90;;;;;;6132099;23;20178;-90
2023/08/29 08:27:13;;;;;;;21.20;16.60;;;15.60;99.90;;;;;;6120244;23;20614;-91
2023/08/29 08:29:39;;;;;;;20.03;16.17;;;15.70;99.90;;;;;;6134881;23;20556;-92
2023/08/29 08:32:05;;;;;;;21.17;16.37;;;15.50;99.90;;;;;;6135142;23;20192;-92
2023/08/29 08:34:30;;;;;;;21.33;16.93;;;16.30;99.90;;;;;;6160833;23;20257;-92
2023/08/29 08:36:56;;;;;;;21.67;16.83;;;15.90;99.90;;;;;;6134846;23;20157;-90
2023/08/29 08:39:22;;;;;;;20.17;16.20;;;16.00;99.90;;;;;;6134921;23;20161;-89
2023/08/29 08:41:47;;;;;;;19.20;15.97;;;16.00;99.90;;;;;;6161510;23;20153;-92
2023/08/29 08:44:17;;;;;;;21.53;15.23;;;16.00;99.90;;;;;;6134783;23;20165;-92
2023/08/29 08:46:43;;;;;;;21.17;16.30;;;16.30;99.90;;;;;;6162118;23;20165;-93
2023/08/29 08:49:10;;;;;;;19.07;16.30;;;16.10;99.90;;;;;;6136333;23;20165;-90
2023/08/29 08:51:40;;;;;;;20.17;17.37;;;16.10;99.90;;;;;;6134970;23;20244;-91
2023/08/29 08:54:07;;;;;;;18.73;16.20;;;16.20;99.90;;;;;;6134855;23;20158;-93
2023/08/29 08:56:33;;;;;;;21.33;16.70;;;16.60;99.90;;;;;;6134732;23;20158;-91
2023/08/29 08:58:59;;;;;;;21.73;18.30;;;16.30;99.90;;;;;;6134465;23;20200;-91
2023/08/29 09:01:26;;;;;;;23.23;17.30;;;16.40;99.90;;;;;;6134761;23;20169;-91
2023/08/29 09:03:52;;;;;;;21.00;18.10;;;16.50;99.90;;;;;;6135167;23;20161;-90
2023/08/29 09:06:18;;;;;;;23.33;18.23;;;16.50;99.90;;;;;;6135645;23;20269;-91
2023/08/29 09:08:44;;;;;;;26.57;19.57;;;16.60;99.90;;;;;;6160496;23;20214;-89
2023/08/29 09:11:10;;;;;;;24.57;18.90;;;16.70;99.90;;;;;;6134505;23;20571;-91
2023/08/29 09:13:44;;;;;;;24.63;19.40;;;17.00;99.90;;;;;;6133951;23;20162;-90
2023/08/29 09:16:10;;;;;;;26.43;21.63;;;16.90;99.90;;;;;;6109765;23;20626;-91
2023/08/29 09:18:36;;;;;;;29.33;21.77;;;17.00;99.90;;;;;;6133599;23;20165;-91
2023/08/29 09:21:04;;;;;;;26.13;21.33;;;17.00;99.90;;;;;;6159059;23;20169;-90
2023/08/29 09:23:36;;;;;;;23.80;19.97;;;17.20;99.90;;;;;;6159609;23;20595;-89
2023/08/29 09:26:04;;;;;;;25.10;21.47;;;17.30;99.80;;;;;;6159378;23;20235;-92
2023/08/29 09:28:30;;;;;;;28.73;24.33;;;17.40;98.70;;;;;;6133425;23;20177;-89
2023/08/29 09:31:10;;;;;;;29.87;25.43;;;17.40;91.70;;;;;;6132619;23;20154;-91
2023/08/29 09:33:39;;;;;;;29.80;25.77;;;17.40;93.10;;;;;;6133887;23;20211;-90
2023/08/29 09:36:05;;;;;;;25.27;21.27;;;17.50;99.90;;;;;;6167190;23;20170;-90
2023/08/29 09:38:34;;;;;;;26.13;21.20;;;17.70;97.50;;;;;;6138997;23;20158;-90
2023/08/29 09:41:01;;;;;;;23.97;21.37;;;17.90;95.30;;;;;;6129042;23;20153;-92
2023/08/29 09:43:31;;;;;;;28.90;22.77;;;18.60;91.50;;;;;;6134831;23;20158;-91
2023/08/29 09:45:57;;;;;;;26.27;23.03;;;18.20;88.60;;;;;;6133904;23;20177;-91
2023/08/29 09:48:23;;;;;;;29.07;23.23;;;18.40;78.90;;;;;;6134625;23;20209;-89
2023/08/29 09:50:50;;;;;;;23.75;21.20;;;18.30;71.20;;;;;;6134320;23;20161;-89
2023/08/29 09:53:18;;;;;;;24.87;22.07;;;18.20;64.30;;;;;;6134110;23;20408;-91
2023/08/29 09:55:46;;;;;;;22.87;20.37;;;18.50;63.30;;;;;;6160517;23;20282;-91
2023/08/29 09:58:14;;;;;;;24.83;19.93;;;18.50;66.60;;;;;;6134021;23;20185;-90
2023/08/29 10:00:41;;;;;;;22.37;19.93;;;18.80;70.10;;;;;;6160921;23;20231;-89
2023/08/29 10:03:08;;;;;;;22.50;18.87;;;19.00;65.40;;;;;;6160198;23;20540;-91
2023/08/29 10:05:36;;;;;;;24.87;19.43;;;19.30;50.80;;;;;;6159098;23;20718;-89
2023/08/29 10:08:13;;;;;;;21.40;18.10;;;19.30;36.10;;;;;;6134025;23;20188;-91
2023/08/29 10:10:41;;;;;;;26.13;19.37;;;19.40;36.20;;;;;;6145401;23;20133;-92
2023/08/29 10:13:09;;;;;;;19.83;17.73;;;19.70;33.20;;;;;;6144181;23;20180;-92
2023/08/29 10:15:35;;;;;;;21.17;17.90;;;19.80;33.80;;;;;;6160119;23;20181;-91
2023/08/29 10:18:01;;;;;;;19.17;17.10;;;19.90;13.50;;;;;;6160864;23;20586;-92
2023/08/29 10:20:28;;;;;;;20.20;15.13;;;19.80;4.70;;;;;;6134383;23;20164;-92
2023/08/29 10:22:54;;;;;;;14.40;12.30;;;19.80;8.50;;;;;;6134771;23;20507;-92
2023/08/29 10:25:24;;;;;;;13.70;11.97;;;19.80;6.50;;;;;;6135959;23;20236;-90
2023/08/29 10:27:50;;;;;;;21.73;12.37;;;19.90;6.90;;;;;;6134121;23;20213;-91
2023/08/29 10:30:16;;;;;;;13.83;12.33;;;19.90;1.00;;;;;;6133889;23;20577;-92
2023/08/29 10:32:44;;;;;;;18.13;15.03;;;19.90;1.00;;;;;;6109968;23;20189;-92
2023/08/29 10:35:19;;;;;;;16.70;13.80;;;20.00;2.70;;;;;;6134461;23;20173;-91
2023/08/29 10:37:46;;;;;;;16.07;13.37;;;20.10;1.00;;;;;;6134829;23;20157;-91
2023/08/29 10:40:12;;;;;;;13.13;11.73;;;20.40;1.00;;;;;;6134312;23;20523;-92
2023/08/29 10:42:51;;;;;;;12.87;11.57;;;20.70;1.00;;;;;;6134496;23;20169;-91
2023/08/29 10:45:18;;;;;;;13.83;11.23;;;21.20;1.00;;;;;;6136344;23;20580;-91
2023/08/29 10:47:48;;;;;;;12.27;10.97;;;21.20;1.00;;;;;;6134250;23;20185;-91
2023/08/29 10:50:19;;;;;;;13.37;11.80;;;21.30;1.00;;;;;;6133835;23;20300;-91
2023/08/29 10:52:46;;;;;;;12.60;11.30;;;21.50;1.00;;;;;;6134451;23;20201;-91
2023/08/29 10:55:29;;;;;;;14.50;11.13;;;21.60;1.00;;;;;;6160795;23;20169;-89
2023/08/29 10:57:58;;;;;;;12.83;11.53;;;21.80;1.00;;;;;;6134522;23;20464;-91
2023/08/29 11:00:43;;;;;;;12.30;11.00;;;21.90;1.00;;;;;;6160081;23;20666;-91
2023/08/29 11:03:08;;;;;;;12.80;11.47;;;21.80;1.00;;;;;;6162361;23;20184;-92
2023/08/29 11:05:40;;;;;;;12.23;10.93;;;21.70;1.00;;;;;;6161527;23;20182;-89
2023/08/29 11:08:23;;;;;;;11.23;10.07;;;21.50;1.00;;;;;;6135582;23;20296;-89
2023/08/29 11:11:13;;;;;;;13.40;10.87;;;21.30;1.00;;;;;;6135932;23;20166;-90
2023/08/29 11:13:58;;;;;;;9.67;8.67;;;21.10;1.00;;;;;;6136308;23;20178;-90
2023/08/29 11:16:28;;;;;;;10.03;8.30;;;21.30;1.00;;;;;;6136291;23;20162;-90
2023/08/29 11:19:09;;;;;;;10.30;9.20;;;21.30;1.00;;;;;;6135836;23;20189;-93
2023/08/29 11:21:35;;;;;;;10.40;7.50;;;21.50;1.00;;;;;;6162373;23;20587;-90
2023/08/29 11:24:01;;;;;;;10.50;8.40;;;21.60;1.00;;;;;;6135400;23;20154;-89
2023/08/29 11:26:28;;;;;;;9.50;8.60;;;21.60;1.00;;;;;;6136367;23;20181;-92
2023/08/29 11:28:54;;;;;;;10.93;7.13;;;21.60;1.00;;;;;;6136663;23;20153;-90
2023/08/29 11:31:20;;;;;;;9.53;8.00;;;21.70;1.00;;;;;;6136495;23;20185;-91
2023/08/29 11:33:46;;;;;;;8.80;7.83;;;21.80;5.10;;;;;;6162165;23;20150;-92
2023/08/29 11:36:12;;;;;;;9.03;8.13;;;22.00;6.00;;;;;;6136387;23;20186;-92
2023/08/29 11:38:38;;;;;;;6.90;4.83;;;22.20;1.00;;;;;;6136788;23;20598;-93
2023/08/29 11:41:05;;;;;;;4.60;4.20;;;22.20;1.00;;;;;;6162733;23;20149;-91
2023/08/29 11:43:34;;;;;;;6.90;4.20;;;22.20;1.00;;;;;;6137551;23;20158;-91
2023/08/29 11:46:03;;;;;;;6.57;4.77;;;22.30;1.00;;;;;;6137161;23;20616;-92
2023/08/29 11:48:31;;;;;;;7.47;5.17;;;22.30;1.00;;;;;;6136803;23;20165;-91
2023/08/29 11:51:05;;;;;;;6.50;5.73;;;22.50;1.00;;;;;;6146568;23;20157;-90
2023/08/29 11:53:36;;;;;;;7.80;5.80;;;22.60;1.00;;;;;;6137382;23;20199;-91
2023/08/29 11:56:03;;;;;;;7.60;5.93;;;22.70;1.00;;;;;;6160414;23;20177;-90
2023/08/29 11:58:34;;;;;;;4.57;3.40;;;22.70;1.00;;;;;;6134368;23;20165;-90
2023/08/29 12:01:04;;;;;;;3.30;3.00;;;22.70;1.00;;;;;;6134978;23;20157;-91
2023/08/29 12:03:34;;;;;;;3.80;3.50;;;22.80;1.00;;;;;;6134501;23;20253;-91
2023/08/29 12:05:59;;;;;;;3.80;3.27;;;23.00;1.00;;;;;;6160624;23;20181;-92
2023/08/29 12:08:41;;;;;;;2.47;2.00;;;23.20;1.00;;;;;;6134410;23;20166;-90
2023/08/29 12:11:13;;;;;;;6.00;2.73;;;23.50;1.00;;;;;;6134110;23;20164;-90
2023/08/29 12:13:41;;;;;;;3.43;2.30;;;23.60;1.00;;;;;;6133694;23;20516;-92
2023/08/29 12:16:16;;;;;;;3.90;2.57;;;23.60;1.00;;;;;;6134222;23;20177;-92
2023/08/29 12:18:42;;;;;;;3.30;2.83;;;23.70;1.00;;;;;;6134729;23;20239;-92
2023/08/29 12:21:17;;;;;;;2.80;2.23;;;23.80;1.00;;;;;;6134293;23;20226;-91
2023/08/29 12:23:45;;;;;;;5.33;3.83;;;;;;;;;;6159864;23;20192;-92
2023/08/29 12:26:12;;;;;;;5.73;4.17;;;23.90;1.00;;;;;;6133288;23;20181;-91
2023/08/29 12:28:38;;;;;;;3.37;3.07;;;23.70;1.00;;;;;;6108723;23;20151;-87
2023/08/29 12:31:03;;;;;;;5.93;3.17;;;23.60;1.00;;;;;;6118412;23;20293;-88
2023/08/29 12:33:29;;;;;;;3.33;2.67;;;23.60;1.00;;;;;;6107004;23;20170;-89
2023/08/29 12:35:55;;;;;;;3.47;2.50;;;23.80;1.00;;;;;;6106966;23;20178;-93